createdAt,value
2023-02-20T07:52:53.587Z,7.45
2023-02-20T07:55:21.615Z,7.58
2023-02-20T07:57:54.505Z,7.64
2023-02-20T08:00:23.762Z,7.82
2023-02-20T08:02:51.119Z,7.92
2023-02-20T08:05:18.518Z,7.89
2023-02-20T08:07:49.639Z,8.01
2023-02-20T08:10:22.712Z,7.97
2023-02-20T08:12:51.427Z,8.13
2023-02-20T08:15:21.923Z,8.22
2023-02-20T08:17:51.425Z,8.16
2023-02-20T08:20:21.912Z,8.33
2023-02-20T08:22:51.378Z,8.51
2023-02-20T08:25:19.457Z,8.45
2023-02-20T08:27:49.961Z,8.60
2023-02-20T08:30:28.076Z,8.70
2023-02-20T08:32:56.046Z,8.71
2023-02-20T08:35:25.085Z,8.74
2023-02-20T08:37:52.538Z,8.90
2023-02-20T08:40:20.054Z,8.93
2023-02-20T08:42:50.974Z,9.09
2023-02-20T08:45:18.344Z,9.20
2023-02-20T08:47:45.670Z,9.34
2023-02-20T08:50:13.016Z,9.45
2023-02-20T08:52:42.285Z,9.54
2023-02-20T08:55:10.810Z,9.77
2023-02-20T08:57:38.347Z,9.83
2023-02-20T09:00:07.124Z,9.99
2023-02-20T09:02:34.487Z,10.10
2023-02-20T09:05:01.774Z,10.21
2023-02-20T09:07:29.093Z,10.45
2023-02-20T09:09:56.392Z,10.58
2023-02-20T09:12:23.758Z,10.80
2023-02-20T09:14:51.246Z,10.77
2023-02-20T09:17:19.166Z,10.86
2023-02-20T09:19:46.505Z,11.04
2023-02-20T09:22:13.917Z,11.05
2023-02-20T09:24:42.008Z,11.30
2023-02-20T09:27:10.046Z,11.40
2023-02-20T09:29:41.034Z,11.67
2023-02-20T09:32:08.563Z,11.78
2023-02-20T09:34:36.085Z,12.02
2023-02-20T09:37:04.813Z,12.02
2023-02-20T09:39:32.458Z,12.21
2023-02-20T09:43:15.364Z,12.49
2023-02-20T09:46:14.308Z,12.58
2023-02-20T09:49:15.692Z,12.75
2023-02-20T09:51:53.747Z,12.81
2023-02-20T09:54:49.437Z,13.17
2023-02-20T09:57:28.525Z,13.45
2023-02-20T10:00:35.465Z,13.33
2023-02-20T10:03:45.579Z,13.63
2023-02-20T10:06:26.461Z,14.00
2023-02-20T10:08:54.826Z,14.26
2023-02-20T10:12:11.767Z,14.18
2023-02-20T10:15:11.349Z,14.47
2023-02-20T10:18:18.177Z,14.36
2023-02-20T10:21:11.064Z,14.82
2023-02-20T10:24:05.680Z,15.04
2023-02-20T10:26:43.486Z,15.01
2023-02-20T10:29:28.649Z,15.45
2023-02-20T10:32:15.510Z,15.60
2023-02-20T10:35:11.154Z,15.58
2023-02-20T10:37:53.365Z,15.80
2023-02-20T10:40:48.171Z,16.07
2023-02-20T10:43:53.589Z,16.30
2023-02-20T10:46:54.125Z,16.41
2023-02-20T10:50:08.136Z,16.64
2023-02-20T10:53:27.705Z,16.86
2023-02-20T10:56:27.064Z,17.02
2023-02-20T10:59:27.497Z,17.21
2023-02-20T11:01:59.466Z,17.33
2023-02-20T11:04:37.665Z,17.41
2023-02-20T11:07:15.890Z,17.67
2023-02-20T11:09:43.340Z,17.82
2023-02-20T11:12:44.464Z,18.10
2023-02-20T11:15:30.703Z,18.43
2023-02-20T11:17:59.960Z,18.25
2023-02-20T11:20:33.309Z,18.26
2023-02-20T11:23:02.137Z,18.53
2023-02-20T11:25:36.588Z,18.74
2023-02-20T11:28:27.028Z,18.68
2023-02-20T11:31:07.586Z,19.06
2023-02-20T11:33:45.594Z,19.47
2023-02-20T11:36:31.161Z,19.80
2023-02-20T11:39:03.575Z,19.47
2023-02-20T11:41:36.764Z,19.89
2023-02-20T11:44:14.596Z,19.80
2023-02-20T11:46:44.332Z,20.00
2023-02-20T11:49:28.267Z,20.26
2023-02-20T11:52:19.727Z,20.12
2023-02-20T11:55:08.917Z,20.00
2023-02-20T11:57:44.776Z,20.40
2023-02-20T12:00:46.906Z,20.55
2023-02-20T12:03:34.432Z,21.00
2023-02-20T12:06:32.691Z,20.56
2023-02-20T12:09:04.778Z,20.77
2023-02-20T12:11:32.134Z,20.55
2023-02-20T12:14:01.194Z,20.63
2023-02-20T12:16:49.241Z,20.96
2023-02-20T12:19:49.397Z,21.27
2023-02-20T12:22:43.725Z,20.76
2023-02-20T12:26:17.292Z,21.24
2023-02-20T12:30:48.403Z,21.62
2023-02-20T12:34:07.095Z,21.88
2023-02-20T12:37:24.641Z,22.09
2023-02-20T12:40:29.024Z,21.75
2023-02-20T12:43:47.411Z,22.12
2023-02-20T12:46:29.089Z,22.26
2023-02-20T12:49:48.092Z,21.88
2023-02-20T12:52:45.715Z,21.81
2023-02-20T12:56:03.429Z,22.29
2023-02-20T12:59:07.901Z,22.35
2023-02-20T13:01:40.183Z,22.35
2023-02-20T13:04:53.656Z,22.35
2023-02-20T13:07:46.199Z,22.86
2023-02-20T13:10:42.693Z,22.37
2023-02-20T13:13:11.715Z,22.16
2023-02-20T13:16:14.110Z,22.10
2023-02-20T13:19:03.298Z,22.49
2023-02-20T13:21:32.808Z,22.76
2023-02-20T13:24:41.709Z,22.31
2023-02-20T13:27:32.829Z,22.50
2023-02-20T13:30:22.282Z,22.41
2023-02-20T13:33:09.578Z,22.66
2023-02-20T13:35:56.624Z,22.72
2023-02-20T13:38:28.635Z,22.51
2023-02-20T13:40:55.722Z,22.49
2023-02-20T13:43:22.760Z,22.62
2023-02-20T13:46:17.935Z,22.52
2023-02-20T13:48:52.236Z,23.13
2023-02-20T13:51:21.136Z,22.86
2023-02-20T13:54:12.611Z,22.37
2023-02-20T13:56:45.669Z,22.37
2023-02-20T13:59:19.766Z,22.31
2023-02-20T14:02:24.190Z,22.09
2023-02-20T14:05:11.069Z,22.02
2023-02-20T14:07:45.810Z,22.08
2023-02-20T14:10:34.798Z,21.66
2023-02-20T14:13:30.894Z,21.61
2023-02-20T14:16:36.026Z,20.88
2023-02-20T14:19:28.473Z,20.70
2023-02-20T14:21:55.851Z,20.55
2023-02-20T14:24:29.843Z,20.49
2023-02-20T14:26:57.593Z,19.66
2023-02-20T14:29:35.452Z,19.73
2023-02-20T14:32:06.418Z,19.89
2023-02-20T14:35:36.221Z,19.73
2023-02-20T14:39:04.555Z,19.70
2023-02-20T14:41:32.489Z,19.54
2023-02-20T14:44:15.952Z,18.99
2023-02-20T14:46:43.275Z,18.94
2023-02-20T14:49:27.442Z,19.07
2023-02-20T14:52:10.261Z,18.98
2023-02-20T14:54:44.635Z,18.95
2023-02-20T14:57:16.129Z,18.97
2023-02-20T14:59:43.916Z,18.84
2023-02-20T15:02:34.266Z,18.73
2023-02-20T15:05:12.670Z,18.58
2023-02-20T15:07:41.042Z,18.66
2023-02-20T15:10:43.692Z,18.89
2023-02-20T15:13:16.465Z,18.92
2023-02-20T15:15:51.681Z,18.76
2023-02-20T15:18:43.676Z,18.89
2023-02-20T15:21:14.042Z,18.99
2023-02-20T15:23:46.141Z,19.07
2023-02-20T15:26:33.839Z,18.56
2023-02-20T15:29:27.710Z,18.63
2023-02-20T15:32:25.569Z,18.91
2023-02-20T15:34:58.878Z,18.88
2023-02-20T15:37:43.123Z,18.85
2023-02-20T15:40:29.185Z,18.96
2023-02-20T15:42:57.628Z,18.93
2023-02-20T15:45:31.188Z,18.82
2023-02-20T15:47:59.079Z,19.12
2023-02-20T15:50:27.425Z,19.28
2023-02-20T15:52:58.622Z,19.39
2023-02-20T15:55:35.344Z,19.84
2023-02-20T15:58:04.611Z,19.57
2023-02-20T16:00:34.274Z,19.46
2023-02-20T16:03:02.603Z,19.61
2023-02-20T16:05:29.973Z,19.73
2023-02-20T16:07:57.378Z,19.58
2023-02-20T16:10:25.863Z,19.55
2023-02-20T16:12:59.693Z,19.65
2023-02-20T16:15:27.181Z,19.24
2023-02-20T16:17:55.985Z,19.33
2023-02-20T16:20:30.900Z,19.51
2023-02-20T16:22:58.340Z,19.72
2023-02-20T16:25:26.089Z,19.62
2023-02-20T16:27:56.321Z,19.36
2023-02-20T16:30:41.673Z,19.47
2023-02-20T16:33:27.644Z,19.48
2023-02-20T16:35:55.905Z,19.40
2023-02-20T16:38:25.303Z,19.29
2023-02-20T16:40:55.308Z,18.89
2023-02-20T16:43:23.982Z,18.72
2023-02-20T16:45:51.961Z,18.64
2023-02-20T16:48:21.689Z,18.71
2023-02-20T16:50:53.127Z,18.38
2023-02-20T16:53:21.309Z,18.37
2023-02-20T16:55:49.325Z,18.38
2023-02-20T16:58:16.829Z,18.23
2023-02-20T17:00:56.583Z,17.99
2023-02-20T17:03:24.779Z,18.02
2023-02-20T17:05:59.290Z,17.89
2023-02-20T17:08:27.820Z,17.73
2023-02-20T17:10:55.654Z,17.73
2023-02-20T17:13:22.948Z,17.63
2023-02-20T17:15:50.309Z,17.48
2023-02-20T17:18:17.620Z,17.45
2023-02-20T17:20:45.021Z,17.45
2023-02-20T17:23:12.303Z,17.26
2023-02-20T17:25:39.579Z,17.34
2023-02-20T17:28:07.017Z,17.24
2023-02-20T17:30:34.791Z,17.04
2023-02-20T17:33:02.813Z,16.96
2023-02-20T17:35:30.141Z,17.01
2023-02-20T17:37:57.430Z,16.92
2023-02-20T17:40:24.732Z,16.63
2023-02-20T17:42:52.074Z,16.48
2023-02-20T17:45:19.360Z,16.20
2023-02-20T17:47:46.799Z,16.22
2023-02-20T17:50:18.779Z,16.17
2023-02-20T17:52:47.042Z,16.33
2023-02-20T17:55:21.975Z,16.27
2023-02-20T17:57:49.908Z,16.49
2023-02-20T18:00:19.910Z,16.10
2023-02-20T18:02:47.325Z,15.95
2023-02-20T18:05:14.653Z,16.02
2023-02-20T18:07:42.046Z,15.83
2023-02-20T18:10:09.545Z,15.65
2023-02-20T18:12:37.024Z,15.36
2023-02-20T18:15:04.885Z,15.57
2023-02-20T18:17:32.473Z,15.34
2023-02-20T18:19:59.748Z,15.53
2023-02-20T18:22:27.023Z,15.54
2023-02-20T18:24:54.300Z,15.15
2023-02-20T18:27:22.057Z,14.80
2023-02-20T18:29:49.380Z,14.88
2023-02-20T18:32:16.809Z,14.87
2023-02-20T18:34:44.134Z,14.71
2023-02-20T18:37:11.598Z,14.80
2023-02-20T18:39:38.898Z,14.70
2023-02-20T18:42:06.304Z,14.34
2023-02-20T18:44:33.621Z,14.20
2023-02-20T18:47:01.148Z,14.03
2023-02-20T18:49:28.777Z,13.96
2023-02-20T18:51:56.113Z,13.91
2023-02-20T18:54:27.094Z,13.82
2023-02-20T18:56:55.188Z,13.63
2023-02-20T18:59:23.599Z,13.73
2023-02-20T19:01:51.080Z,13.86
2023-02-20T19:04:18.450Z,14.03
2023-02-20T19:06:47.007Z,14.10
2023-02-20T19:09:24.486Z,13.99
2023-02-20T19:11:56.544Z,13.95
2023-02-20T19:14:28.862Z,13.86
2023-02-20T19:17:00.760Z,13.68
2023-02-20T19:19:31.934Z,13.62
2023-02-20T19:21:59.586Z,13.74
2023-02-20T19:24:27.414Z,13.40
2023-02-20T19:26:54.722Z,13.51
2023-02-20T19:29:22.068Z,13.31
2023-02-20T19:31:49.605Z,13.34
2023-02-20T19:34:17.261Z,13.23
2023-02-20T19:36:44.575Z,13.14
2023-02-20T19:39:14.962Z,13.11
2023-02-20T19:41:42.490Z,13.16
2023-02-20T19:44:17.849Z,13.44
2023-02-20T19:46:45.306Z,13.38
2023-02-20T19:49:12.751Z,13.30
2023-02-20T19:51:48.213Z,13.27
2023-02-20T19:54:18.902Z,13.10
2023-02-20T19:57:00.935Z,12.85
2023-02-20T19:59:30.188Z,12.97
2023-02-20T20:02:00.602Z,12.80
2023-02-20T20:04:33.757Z,12.82
2023-02-20T20:07:05.049Z,12.74
2023-02-20T20:09:37.033Z,12.58
2023-02-20T20:12:26.362Z,12.53
2023-02-20T20:14:55.794Z,12.56
2023-02-20T20:17:23.206Z,12.47
2023-02-20T20:20:00.494Z,12.40
2023-02-20T20:22:30.583Z,12.37
2023-02-20T20:24:59.359Z,12.43
2023-02-20T20:27:26.761Z,12.41
2023-02-20T20:29:54.113Z,12.43
2023-02-20T20:32:22.325Z,12.43
2023-02-20T20:34:55.411Z,12.25
2023-02-20T20:37:27.586Z,12.40
2023-02-20T20:40:01.008Z,12.53
2023-02-20T20:42:29.148Z,12.43
2023-02-20T20:44:59.320Z,12.50
2023-02-20T20:47:30.705Z,12.40
2023-02-20T20:49:59.464Z,12.42
2023-02-20T20:52:30.428Z,12.29
2023-02-20T20:55:02.797Z,12.30
2023-02-20T20:57:38.028Z,12.30
2023-02-20T21:00:19.656Z,12.22
2023-02-20T21:02:47.366Z,12.16
2023-02-20T21:05:14.842Z,12.16
2023-02-20T21:07:42.405Z,12.06
2023-02-20T21:10:11.234Z,12.03
2023-02-20T21:12:39.296Z,11.90
2023-02-20T21:15:10.657Z,11.86
2023-02-20T21:17:41.681Z,11.93
2023-02-20T21:20:21.493Z,11.87
2023-02-20T21:22:51.002Z,12.00
2023-02-20T21:25:27.458Z,11.85
2023-02-20T21:27:57.134Z,11.75
2023-02-20T21:30:26.892Z,11.55
2023-02-20T21:32:55.131Z,11.75
2023-02-20T21:35:23.559Z,11.72
2023-02-20T21:37:51.225Z,11.68
2023-02-20T21:40:19.850Z,11.45
2023-02-20T21:43:05.698Z,11.49
2023-02-20T21:45:36.173Z,11.46
2023-02-20T21:48:05.342Z,11.37
2023-02-20T21:50:32.896Z,11.18
2023-02-20T21:53:01.151Z,11.19
2023-02-20T21:55:29.218Z,11.04
2023-02-20T21:57:56.878Z,10.96
2023-02-20T22:00:24.700Z,10.87
2023-02-20T22:02:52.096Z,10.87
2023-02-20T22:05:19.510Z,10.84
2023-02-20T22:08:05.516Z,10.83
2023-02-20T22:10:51.527Z,10.66
2023-02-20T22:13:37.520Z,10.68
2023-02-20T22:16:23.459Z,10.52
2023-02-20T22:19:09.373Z,10.53
2023-02-20T22:21:55.147Z,10.48
2023-02-20T22:24:41.504Z,10.35
2023-02-20T22:27:29.065Z,10.30
2023-02-20T22:30:15.653Z,10.43
2023-02-20T22:33:01.587Z,10.29
2023-02-20T22:35:47.512Z,10.18
2023-02-20T22:38:33.384Z,10.10
2023-02-20T22:41:19.283Z,10.01
2023-02-20T22:44:05.399Z,10.08
2023-02-20T22:46:51.436Z,9.98
2023-02-20T22:49:37.367Z,9.94
2023-02-20T22:52:23.257Z,9.99
2023-02-20T22:55:09.550Z,9.96
2023-02-20T22:57:55.579Z,9.96
2023-02-20T23:00:41.421Z,9.77
2023-02-20T23:03:27.284Z,9.85
2023-02-20T23:06:18.383Z,9.88
